Time;durP1;ratioP1;P1;durP2;ratioP2;P2;SDS_P1;SDS_P2;PMS_P1;PMS_P2;Temp;Humidity;BMP_temperature;BMP_pressure;BME280_temperature;BME280_humidity;BME280_pressure;Samples;Min_cycle;Max_cycle;Signal;HPM_P1;HPM_P2
2024/01/15 00:00:01;;;;;;;1.93;1.37;;;5.80;40.10;;;;;;5091941;28;20428;-41
2024/01/15 00:02:26;;;;;;;2.40;1.07;;;5.80;40.40;;;;;;5091828;28;20164;-42
2024/01/15 00:04:52;;;;;;;3.60;1.33;;;5.70;40.60;;;;;;5092383;28;20204;-45
2024/01/15 00:07:18;;;;;;;1.70;1.20;;;5.70;40.20;;;;;;5092526;28;20581;-43
2024/01/15 00:09:44;;;;;;;3.80;0.93;;;5.80;40.20;;;;;;5092062;28;20188;-43
2024/01/15 00:12:09;;;;;;;0.90;0.40;;;5.90;40.00;;;;;;5092048;28;20225;-49
2024/01/15 00:14:35;;;;;;;0.80;0.30;;;6.00;39.70;;;;;;5092018;28;20180;-49
2024/01/15 00:17:01;;;;;;;1.00;0.60;;;6.00;39.70;;;;;;5092631;28;20172;-43
2024/01/15 00:19:27;;;;;;;1.63;1.50;;;5.90;39.70;;;;;;5091953;28;20493;-42
2024/01/15 00:21:53;;;;;;;1.00;0.63;;;5.80;40.00;;;;;;5091915;28;20591;-46
2024/01/15 00:24:19;;;;;;;3.43;0.80;;;5.90;40.20;;;;;;5092071;28;20207;-45
2024/01/15 00:26:45;;;;;;;1.23;0.65;;;5.90;40.20;;;;;;5092186;28;20944;-43
2024/01/15 00:29:10;;;;;;;2.97;1.37;;;5.90;40.00;;;;;;5091809;28;20184;-47
2024/01/15 00:31:36;;;;;;;1.50;0.90;;;5.90;40.10;;;;;;5091634;28;20422;-48
2024/01/15 00:34:02;;;;;;;0.80;0.40;;;5.60;40.70;;;;;;5091897;28;20168;-44
2024/01/15 00:36:28;;;;;;;0.80;0.30;;;5.60;40.70;;;;;;5092061;28;20179;-48
2024/01/15 00:38:54;;;;;;;0.80;0.30;;;5.70;40.60;;;;;;5091957;28;20256;-43
2024/01/15 00:41:20;;;;;;;1.23;0.93;;;5.80;40.10;;;;;;5091488;28;20283;-50
2024/01/15 00:43:46;;;;;;;1.97;1.07;;;5.90;40.20;;;;;;5091591;28;20454;-45
2024/01/15 00:46:12;;;;;;;1.20;1.05;;;5.80;40.30;;;;;;5091931;28;20394;-41
2024/01/15 00:48:38;;;;;;;3.57;2.40;;;5.70;40.60;;;;;;5091755;28;20178;-44
2024/01/15 00:51:07;;;;;;;1.40;1.00;;;5.70;40.60;;;;;;5091605;28;20192;-46
2024/01/15 00:53:32;;;;;;;0.90;0.43;;;5.80;40.10;;;;;;5091761;28;20483;-44
2024/01/15 00:55:58;;;;;;;1.07;0.87;;;5.80;40.10;;;;;;5091661;28;20634;-45
2024/01/15 00:58:24;;;;;;;2.00;1.37;;;5.70;40.20;;;;;;5091598;28;20234;-44
2024/01/15 01:00:49;;;;;;;2.13;1.60;;;5.70;40.40;;;;;;5091400;28;20279;-47
2024/01/15 01:03:15;;;;;;;7.20;1.17;;;5.90;40.20;;;;;;5091649;28;20227;-43
2024/01/15 01:05:41;;;;;;;2.50;2.27;;;5.90;39.70;;;;;;5091720;28;20573;-45
2024/01/15 01:08:07;;;;;;;3.20;1.53;;;6.00;39.60;;;;;;5091567;28;20449;-42
2024/01/15 01:10:33;;;;;;;1.80;0.87;;;5.90;39.40;;;;;;5090106;28;20184;-45
2024/01/15 01:12:59;;;;;;;1.67;1.47;;;5.70;39.80;;;;;;5092245;28;20200;-44
2024/01/15 01:15:24;;;;;;;1.30;1.13;;;5.40;40.50;;;;;;5095139;28;20421;-45
2024/01/15 01:17:50;;;;;;;1.00;0.87;;;5.40;41.00;;;;;;5095143;28;20175;-45
2024/01/15 01:20:16;;;;;;;2.10;1.37;;;5.40;40.70;;;;;;5094958;28;20418;-47
2024/01/15 01:22:42;;;;;;;1.63;1.33;;;5.50;40.60;;;;;;5095033;28;20168;-43
2024/01/15 01:25:08;;;;;;;1.33;0.50;;;5.50;40.50;;;;;;5095185;28;20406;-47
2024/01/15 01:27:35;;;;;;;0.80;0.20;;;5.50;40.40;;;;;;5095027;28;20768;-42
2024/01/15 01:30:01;;;;;;;3.38;2.70;;;5.40;40.60;;;;;;5094962;28;20607;-48
2024/01/15 01:32:27;;;;;;;1.27;0.77;;;5.50;40.30;;;;;;5095031;28;20176;-49
2024/01/15 01:34:53;;;;;;;1.52;1.17;;;5.60;40.00;;;;;;5094870;28;20176;-43
2024/01/15 01:37:19;;;;;;;0.80;0.30;;;5.30;40.50;;;;;;5094940;28;20206;-48
2024/01/15 01:39:45;;;;;;;6.78;1.50;;;5.30;40.90;;;;;;5094407;28;20196;-44
2024/01/15 01:42:11;;;;;;;0.90;0.47;;;5.40;40.60;;;;;;5094748;28;20246;-44
2024/01/15 01:44:37;;;;;;;0.90;0.50;;;5.50;40.40;;;;;;5094866;28;20196;-48
2024/01/15 01:47:04;;;;;;;4.63;2.30;;;5.70;40.10;;;;;;5094859;28;20183;-45
2024/01/15 01:49:30;;;;;;;1.23;0.88;;;5.80;39.50;;;;;;5094679;28;20456;-43
2024/01/15 01:51:58;;;;;;;3.80;2.17;;;5.90;39.40;;;;;;5094477;28;20176;-47
2024/01/15 01:54:28;;;;;;;0.90;0.52;;;5.90;39.10;;;;;;5094480;28;20180;-43
2024/01/15 01:56:54;;;;;;;3.70;0.57;;;5.70;39.50;;;;;;5094532;28;20195;-44
2024/01/15 01:59:21;;;;;;;2.43;1.70;;;5.70;39.70;;;;;;5094456;28;20638;-49
2024/01/15 02:01:48;;;;;;;1.88;1.05;;;5.80;39.50;;;;;;5094129;28;20419;-44
2024/01/15 02:04:14;;;;;;;1.77;1.67;;;5.70;39.40;;;;;;5093009;28;20246;-48
2024/01/15 02:06:40;;;;;;;1.92;0.95;;;5.60;39.60;;;;;;5094234;28;20169;-47
2024/01/15 02:09:08;;;;;;;1.37;1.27;;;5.50;39.60;;;;;;5094201;28;20168;-43
2024/01/15 02:11:34;;;;;;;4.85;0.77;;;5.50;39.90;;;;;;5094441;28;20188;-47
2024/01/15 02:13:59;;;;;;;1.50;1.20;;;5.40;39.80;;;;;;5094805;28;20256;-45
2024/01/15 02:16:26;;;;;;;4.00;0.95;;;5.20;40.20;;;;;;5094967;28;20417;-44
2024/01/15 02:18:51;;;;;;;0.80;0.50;;;5.40;40.00;;;;;;5094699;28;20180;-49
2024/01/15 02:21:17;;;;;;;2.03;1.93;;;5.50;39.80;;;;;;5093770;28;20196;-45
2024/01/15 02:23:43;;;;;;;1.30;0.90;;;5.40;39.80;;;;;;5093973;28;20279;-41
2024/01/15 02:26:09;;;;;;;1.00;0.70;;;5.30;40.10;;;;;;5093317;28;20179;-45
2024/01/15 02:28:35;;;;;;;1.13;0.55;;;5.20;40.10;;;;;;5093830;28;20173;-46
2024/01/15 02:31:01;;;;;;;1.00;0.63;;;5.20;40.30;;;;;;5093527;28;20311;-42
2024/01/15 02:33:26;;;;;;;1.20;0.73;;;5.20;40.30;;;;;;5093782;28;20406;-43
2024/01/15 02:35:52;;;;;;;3.57;1.63;;;5.40;39.80;;;;;;5093618;28;20664;-46
2024/01/15 02:38:18;;;;;;;1.33;1.03;;;5.50;39.60;;;;;;5093516;28;20176;-45
2024/01/15 02:40:45;;;;;;;2.38;1.10;;;5.50;39.60;;;;;;5093157;28;20564;-44
2024/01/15 02:43:11;;;;;;;5.90;2.67;;;5.40;39.90;;;;;;5093541;28;20188;-47
2024/01/15 02:45:37;;;;;;;1.10;0.98;;;5.30;40.00;;;;;;5093406;28;20654;-43
2024/01/15 02:48:03;;;;;;;1.07;0.87;;;5.20;40.10;;;;;;5093609;28;20176;-43
2024/01/15 02:50:29;;;;;;;9.70;2.10;;;5.20;40.10;;;;;;5093259;28;20192;-47
2024/01/15 02:52:54;;;;;;;1.47;1.03;;;5.20;40.30;;;;;;5093232;28;20417;-46
2024/01/15 02:55:20;;;;;;;1.43;1.30;;;5.20;40.20;;;;;;5093267;28;20251;-44
2024/01/15 02:57:47;;;;;;;2.03;1.83;;;5.10;40.50;;;;;;5093474;28;20176;-43
2024/01/15 03:00:13;;;;;;;1.77;1.50;;;5.00;40.50;;;;;;5093085;28;20228;-49
2024/01/15 03:02:40;;;;;;;3.08;2.78;;;4.90;40.40;;;;;;5093064;28;20169;-42
2024/01/15 03:05:07;;;;;;;1.00;0.50;;;4.80;40.90;;;;;;5093104;28;20343;-44
2024/01/15 03:07:33;;;;;;;4.00;0.50;;;4.80;41.00;;;;;;5092934;28;20643;-47
2024/01/15 03:09:59;;;;;;;1.80;1.20;;;4.80;41.00;;;;;;5092798;28;20217;-43
2024/01/15 03:12:25;;;;;;;2.22;2.08;;;4.80;41.00;;;;;;5092961;28;20951;-42
2024/01/15 03:14:50;;;;;;;2.17;1.17;;;4.90;40.90;;;;;;5093033;28;20180;-46
2024/01/15 03:17:16;;;;;;;2.40;1.77;;;4.80;40.80;;;;;;5092831;28;20534;-43
2024/01/15 03:19:42;;;;;;;3.13;0.70;;;4.80;40.60;;;;;;5092587;28;20165;-41
2024/01/15 03:22:10;;;;;;;1.93;0.97;;;4.90;40.60;;;;;;5091419;28;20179;-43
2024/01/15 03:24:36;;;;;;;2.45;0.80;;;4.80;40.50;;;;;;5092889;28;20212;-46
2024/01/15 03:27:02;;;;;;;11.00;2.63;;;4.80;40.60;;;;;;5092647;28;20187;-41
2024/01/15 03:29:28;;;;;;;3.13;1.67;;;4.90;40.60;;;;;;5092587;28;20398;-44
2024/01/15 03:31:54;;;;;;;2.73;2.53;;;4.90;40.20;;;;;;5092474;28;20275;-47
2024/01/15 03:34:20;;;;;;;2.60;1.33;;;4.80;40.70;;;;;;5092611;28;20410;-43
2024/01/15 03:36:45;;;;;;;6.43;2.33;;;4.80;40.70;;;;;;5091660;28;20438;-45
2024/01/15 03:39:11;;;;;;;1.67;1.27;;;4.90;40.10;;;;;;5092561;28;20490;-46
2024/01/15 03:41:37;;;;;;;4.93;1.05;;;5.10;39.60;;;;;;5092399;28;20223;-43
2024/01/15 03:44:03;;;;;;;4.30;2.03;;;4.90;39.90;;;;;;5092632;28;20307;-49
2024/01/15 03:46:29;;;;;;;6.10;2.20;;;4.90;40.00;;;;;;5092453;28;20225;-50
2024/01/15 03:48:54;;;;;;;2.60;1.50;;;4.90;40.00;;;;;;5092620;28;20429;-42
2024/01/15 03:51:20;;;;;;;1.30;0.90;;;4.70;40.60;;;;;;5092273;28;20531;-46
2024/01/15 03:53:46;;;;;;;1.88;1.77;;;4.80;40.40;;;;;;5092732;28;20519;-48
2024/01/15 03:56:13;;;;;;;1.70;1.00;;;4.90;39.90;;;;;;5092471;28;20182;-42
2024/01/15 03:58:39;;;;;;;4.55;1.83;;;4.80;40.20;;;;;;5092405;28;20190;-46
2024/01/15 04:01:11;;;;;;;1.00;0.80;;;4.80;40.50;;;;;;5092219;28;20200;-48
2024/01/15 04:03:37;;;;;;;1.90;1.45;;;4.70;40.90;;;;;;5092441;28;20196;-42
2024/01/15 04:06:04;;;;;;;9.38;1.88;;;4.60;41.20;;;;;;5092224;28;20179;-43
2024/01/15 04:08:30;;;;;;;4.90;1.08;;;4.70;41.20;;;;;;5092186;28;20183;-47
2024/01/15 04:10:56;;;;;;;4.93;2.90;;;4.70;41.10;;;;;;5091864;28;20681;-43
2024/01/15 04:13:22;;;;;;;6.73;2.47;;;4.60;41.20;;;;;;5092171;28;20226;-48
2024/01/15 04:15:48;;;;;;;1.70;1.05;;;4.50;41.40;;;;;;5092106;28;20180;-43
2024/01/15 04:18:15;;;;;;;1.10;0.57;;;4.50;41.70;;;;;;5092059;28;20176;-46
2024/01/15 04:20:41;;;;;;;1.13;0.98;;;4.60;41.20;;;;;;5091779;28;20188;-44
2024/01/15 04:23:07;;;;;;;1.10;1.00;;;4.60;41.30;;;;;;5091900;28;20559;-42
2024/01/15 04:25:32;;;;;;;1.67;1.37;;;4.60;41.00;;;;;;5092145;28;20214;-43
2024/01/15 04:27:58;;;;;;;0.93;0.80;;;4.60;41.10;;;;;;5092033;28;20172;-47
2024/01/15 04:30:24;;;;;;;2.00;1.33;;;4.50;41.40;;;;;;5091758;28;20799;-43
2024/01/15 04:32:50;;;;;;;1.10;1.00;;;4.50;41.50;;;;;;5092054;28;20642;-42
2024/01/15 04:35:15;;;;;;;5.87;3.50;;;4.50;41.50;;;;;;5091863;28;20406;-47
2024/01/15 04:37:41;;;;;;;2.80;0.93;;;4.60;40.70;;;;;;5091844;28;20192;-44
2024/01/15 04:40:07;;;;;;;3.67;3.30;;;4.60;40.60;;;;;;5091643;28;20630;-47
2024/01/15 04:42:33;;;;;;;11.30;2.45;;;4.50;40.70;;;;;;5091908;28;20172;-42
2024/01/15 04:44:59;;;;;;;3.43;0.77;;;4.40;40.90;;;;;;5091725;28;20555;-49
2024/01/15 04:47:25;;;;;;;4.05;1.42;;;4.30;41.00;;;;;;5091793;28;20578;-49
2024/01/15 04:49:51;;;;;;;4.00;2.93;;;4.30;41.20;;;;;;5095397;28;20253;-44
2024/01/15 04:52:17;;;;;;;1.48;0.85;;;4.30;41.00;;;;;;5095948;28;20176;-43
2024/01/15 04:54:43;;;;;;;0.90;0.70;;;4.40;40.50;;;;;;5095652;28;20191;-47
2024/01/15 04:57:08;;;;;;;1.93;0.73;;;4.40;40.60;;;;;;5095540;28;20436;-44
2024/01/15 04:59:34;;;;;;;1.37;1.17;;;4.20;41.00;;;;;;5095291;28;20418;-46
2024/01/15 05:02:00;;;;;;;0.93;0.70;;;4.10;41.30;;;;;;5095425;28;20165;-46
2024/01/15 05:04:26;;;;;;;4.50;2.53;;;4.30;40.80;;;;;;5095308;28;20446;-44
2024/01/15 05:06:51;;;;;;;2.30;2.00;;;4.30;40.40;;;;;;5095630;28;20165;-44
2024/01/15 05:09:17;;;;;;;1.40;1.30;;;4.20;40.40;;;;;;5095408;28;20175;-42
2024/01/15 05:11:43;;;;;;;0.90;0.50;;;4.20;40.40;;;;;;5095006;28;20188;-44
2024/01/15 05:14:09;;;;;;;1.00;0.50;;;4.10;40.60;;;;;;5095374;28;20409;-47
2024/01/15 05:16:37;;;;;;;3.90;1.10;;;4.10;40.70;;;;;;5095198;28;20416;-43
2024/01/15 05:19:03;;;;;;;2.85;2.25;;;4.20;40.70;;;;;;5095117;28;21020;-43
2024/01/15 05:21:29;;;;;;;0.90;0.52;;;4.20;40.40;;;;;;5095016;28;20228;-49
2024/01/15 05:23:55;;;;;;;4.67;2.07;;;4.30;40.40;;;;;;5095024;28;20243;-41
2024/01/15 05:26:21;;;;;;;1.27;0.80;;;4.20;40.60;;;;;;5095122;28;20165;-45
2024/01/15 05:28:46;;;;;;;2.03;0.77;;;4.10;40.90;;;;;;5095051;28;20195;-49
2024/01/15 05:31:12;;;;;;;4.80;0.77;;;4.00;41.10;;;;;;5094801;28;20210;-42
2024/01/15 05:33:38;;;;;;;0.90;0.60;;;4.10;41.20;;;;;;5094889;28;20406;-48
2024/01/15 05:36:04;;;;;;;4.07;2.90;;;4.10;41.00;;;;;;5094999;28;20248;-49
2024/01/15 05:38:30;;;;;;;0.80;0.30;;;4.00;41.00;;;;;;5094815;28;20177;-43
2024/01/15 05:40:55;;;;;;;0.80;0.43;;;3.80;41.00;;;;;;5094511;28;20218;-44
2024/01/15 05:43:21;;;;;;;1.47;0.90;;;3.80;41.30;;;;;;5094664;28;20196;-47
2024/01/15 05:45:47;;;;;;;3.50;2.83;;;3.90;41.30;;;;;;5094599;28;20626;-44
2024/01/15 05:48:13;;;;;;;1.00;0.87;;;3.90;40.80;;;;;;5094912;28;20168;-44
2024/01/15 05:50:39;;;;;;;0.80;0.30;;;4.00;40.60;;;;;;5094528;28;20434;-46
2024/01/15 05:53:05;;;;;;;1.00;0.40;;;4.00;40.60;;;;;;5094606;28;20434;-44
2024/01/15 05:55:30;;;;;;;0.90;0.47;;;4.00;40.60;;;;;;5094515;28;20210;-41
2024/01/15 05:57:56;;;;;;;3.67;1.23;;;4.10;40.30;;;;;;5094486;28;20541;-44
2024/01/15 06:00:22;;;;;;;1.47;1.13;;;4.20;40.20;;;;;;5092900;28;20856;-48
2024/01/15 06:02:48;;;;;;;1.10;0.97;;;4.20;40.00;;;;;;5094561;28;20241;-42
2024/01/15 06:05:13;;;;;;;12.53;3.13;;;4.30;39.70;;;;;;5094564;28;20460;-41
2024/01/15 06:07:39;;;;;;;3.40;1.47;;;4.20;39.60;;;;;;5094367;28;20646;-49
2024/01/15 06:10:06;;;;;;;1.60;1.50;;;4.30;39.60;;;;;;5094114;28;20279;-44
2024/01/15 06:12:33;;;;;;;1.92;1.67;;;4.30;39.30;;;;;;5094107;28;20173;-45
2024/01/15 06:14:59;;;;;;;1.63;1.33;;;4.20;39.10;;;;;;5094125;28;20771;-45
2024/01/15 06:17:25;;;;;;;5.30;0.90;;;4.10;39.50;;;;;;5094088;28;20808;-43
2024/01/15 06:19:50;;;;;;;0.80;0.30;;;4.20;39.40;;;;;;5093823;28;20787;-43
2024/01/15 06:22:16;;;;;;;2.60;1.57;;;4.30;39.00;;;;;;5094053;28;20169;-43
2024/01/15 06:24:42;;;;;;;1.50;0.90;;;4.30;39.00;;;;;;5093950;28;20204;-44
2024/01/15 06:27:08;;;;;;;2.28;1.55;;;4.40;38.70;;;;;;5094391;28;20241;-42
2024/01/15 06:29:37;;;;;;;2.70;1.33;;;4.40;38.40;;;;;;5094859;28;20592;-45
2024/01/15 06:32:03;;;;;;;1.77;1.45;;;4.10;38.50;;;;;;5093459;28;20540;-45
2024/01/15 06:34:28;;;;;;;0.90;0.52;;;4.50;38.30;;;;;;5094991;28;20176;-42
2024/01/15 06:36:54;;;;;;;2.60;1.60;;;4.40;38.30;;;;;;5093851;28;20195;-42
2024/01/15 06:39:20;;;;;;;1.20;0.60;;;4.30;38.40;;;;;;5093606;28;20531;-45
2024/01/15 06:41:46;;;;;;;5.50;1.60;;;4.20;39.10;;;;;;5093273;28;20449;-45
2024/01/15 06:44:12;;;;;;;4.40;1.05;;;4.40;38.70;;;;;;5093475;28;20479;-42
2024/01/15 06:46:48;;;;;;;10.68;2.45;;;4.50;38.30;;;;;;5093665;28;20281;-43
2024/01/15 06:49:14;;;;;;;2.10;1.63;;;4.50;38.40;;;;;;5093692;28;20599;-45
2024/01/15 06:51:40;;;;;;;3.17;2.30;;;4.50;38.40;;;;;;5093276;28;20216;-43
2024/01/15 06:54:06;;;;;;;4.00;1.05;;;4.30;38.70;;;;;;5093320;28;20238;-44
2024/01/15 06:56:32;;;;;;;1.03;0.87;;;4.40;38.50;;;;;;5093368;28;20665;-47
2024/01/15 06:58:58;;;;;;;0.85;0.47;;;4.90;38.90;;;;;;5093276;28;20406;-42
2024/01/15 07:01:24;;;;;;;1.37;1.17;;;4.40;38.30;;;;;;5093039;28;20253;-49
2024/01/15 07:03:50;;;;;;;1.10;0.90;;;4.40;38.50;;;;;;5093133;28;20450;-45
2024/01/15 07:06:16;;;;;;;7.03;5.00;;;4.40;38.30;;;;;;5093161;28;20239;-44
2024/01/15 07:08:42;;;;;;;3.35;0.75;;;4.40;38.20;;;;;;5093100;28;20406;-48
2024/01/15 07:11:08;;;;;;;5.82;2.35;;;4.40;38.20;;;;;;5092617;28;20212;-43
2024/01/15 07:13:35;;;;;;;0.90;0.50;;;4.30;38.60;;;;;;5092976;28;20672;-44
2024/01/15 07:16:01;;;;;;;1.58;1.48;;;4.40;38.40;;;;;;5093131;28;20407;-45
2024/01/15 07:18:27;;;;;;;1.23;1.10;;;4.50;38.00;;;;;;5093088;28;20553;-43
2024/01/15 07:20:53;;;;;;;1.10;0.70;;;4.60;37.90;;;;;;5092810;28;20980;-39
2024/01/15 07:23:19;;;;;;;1.10;0.83;;;4.60;37.80;;;;;;5092843;28;20212;-49
2024/01/15 07:25:44;;;;;;;0.80;0.30;;;4.60;37.70;;;;;;5092719;28;20218;-50
2024/01/15 07:28:10;;;;;;;3.37;0.97;;;4.60;37.30;;;;;;5092710;28;20263;-42
2024/01/15 07:30:38;;;;;;;0.80;0.40;;;4.50;37.80;;;;;;5092561;28;20223;-46
2024/01/15 07:33:04;;;;;;;0.80;0.30;;;4.50;37.90;;;;;;5092772;28;20226;-42
2024/01/15 07:35:30;;;;;;;0.80;0.30;;;4.40;37.90;;;;;;5092803;28;20172;-41
2024/01/15 07:37:56;;;;;;;1.50;0.85;;;4.30;38.60;;;;;;5092727;28;20184;-47
2024/01/15 07:40:22;;;;;;;1.00;0.50;;;4.20;38.70;;;;;;5092312;28;20558;-43
2024/01/15 07:42:48;;;;;;;1.00;0.43;;;4.10;38.80;;;;;;5092979;28;20411;-42
2024/01/15 07:45:14;;;;;;;1.37;1.27;;;4.00;39.00;;;;;;5091519;28;20204;-46
2024/01/15 07:47:39;;;;;;;2.07;1.07;;;4.10;39.20;;;;;;5092778;28;20409;-42
2024/01/15 07:50:05;;;;;;;1.00;0.50;;;4.20;39.10;;;;;;5092335;28;20426;-45
2024/01/15 07:52:31;;;;;;;1.13;0.85;;;4.20;38.80;;;;;;5092363;28;20646;-42
2024/01/15 07:54:59;;;;;;;1.40;1.03;;;4.20;38.70;;;;;;5092369;28;20229;-41
2024/01/15 07:57:25;;;;;;;11.52;1.30;;;4.20;38.50;;;;;;5092723;28;20510;-48
2024/01/15 07:59:51;;;;;;;1.45;0.95;;;4.20;38.70;;;;;;5092393;28;20733;-43
2024/01/15 08:02:17;;;;;;;1.07;0.60;;;4.20;38.80;;;;;;5092119;28;20270;-46
2024/01/15 08:04:43;;;;;;;1.23;0.87;;;4.20;38.50;;;;;;5092134;28;20231;-46
2024/01/15 08:07:09;;;;;;;10.80;1.43;;;4.20;38.40;;;;;;5092196;28;20234;-42
2024/01/15 08:09:34;;;;;;;1.10;0.47;;;4.30;38.60;;;;;;5091868;28;20912;-50
2024/01/15 08:12:00;;;;;;;1.40;1.27;;;4.40;38.00;;;;;;5092116;28;20407;-46
2024/01/15 08:14:26;;;;;;;0.87;0.50;;;4.40;38.20;;;;;;5092064;28;20402;-43
2024/01/15 08:16:52;;;;;;;0.80;0.40;;;4.30;38.10;;;;;;5092233;28;20418;-44
2024/01/15 08:19:19;;;;;;;0.90;0.40;;;4.40;38.10;;;;;;5092217;28;20577;-45
2024/01/15 08:21:45;;;;;;;1.08;0.70;;;4.60;37.70;;;;;;5091786;28;20360;-49
2024/01/15 08:24:11;;;;;;;1.30;1.03;;;4.70;37.10;;;;;;5094809;28;20231;-41
2024/01/15 08:26:37;;;;;;;0.90;0.60;;;4.70;37.40;;;;;;5096443;28;20418;-43
2024/01/15 08:29:03;;;;;;;0.80;0.30;;;4.70;37.40;;;;;;5096209;28;20713;-42
2024/01/15 08:31:29;;;;;;;1.03;0.93;;;4.50;37.50;;;;;;5094655;28;20427;-43
2024/01/15 08:33:55;;;;;;;1.40;1.20;;;4.50;37.30;;;;;;5096075;28;20416;-44
2024/01/15 08:36:21;;;;;;;0.80;0.40;;;4.60;37.60;;;;;;5096001;28;20451;-45
2024/01/15 08:38:47;;;;;;;1.00;0.65;;;4.60;37.20;;;;;;5095901;28;20184;-42
2024/01/15 08:41:13;;;;;;;1.30;0.73;;;4.60;37.40;;;;;;5095622;28;20558;-42
2024/01/15 08:43:39;;;;;;;0.80;0.50;;;4.60;37.20;;;;;;5096042;28;20232;-47
2024/01/15 08:46:05;;;;;;;0.90;0.50;;;4.70;37.10;;;;;;5095918;28;20203;-42
2024/01/15 08:48:31;;;;;;;3.17;0.82;;;4.80;36.90;;;;;;5095812;28;20172;-44
2024/01/15 08:50:57;;;;;;;1.60;1.50;;;4.80;37.20;;;;;;5095645;28;20237;-47
2024/01/15 08:53:23;;;;;;;1.47;0.83;;;4.80;36.80;;;;;;5095603;28;20243;-43
2024/01/15 08:55:49;;;;;;;1.63;1.30;;;4.50;37.40;;;;;;5095623;28;20456;-43
2024/01/15 08:58:15;;;;;;;1.10;0.65;;;4.40;37.50;;;;;;5095839;28;20975;-43
2024/01/15 09:00:41;;;;;;;1.00;0.75;;;4.60;37.10;;;;;;5095528;28;20208;-43
2024/01/15 09:03:08;;;;;;;0.80;0.30;;;4.50;38.00;;;;;;5095391;28;20255;-49
2024/01/15 09:05:34;;;;;;;0.80;0.20;;;4.60;37.20;;;;;;5095476;28;20191;-48
2024/01/15 09:08:00;;;;;;;0.80;0.50;;;4.60;36.70;;;;;;5095414;28;20190;-43
2024/01/15 09:10:26;;;;;;;1.98;1.30;;;4.50;37.20;;;;;;5095152;28;20198;-41
2024/01/15 09:12:51;;;;;;;0.80;0.30;;;4.50;37.30;;;;;;5095381;28;20176;-48
2024/01/15 09:15:17;;;;;;;0.80;0.30;;;4.50;37.30;;;;;;5095252;28;20264;-44
2024/01/15 09:17:43;;;;;;;1.00;0.87;;;4.60;37.20;;;;;;5095326;28;20444;-44
2024/01/15 09:20:09;;;;;;;0.80;0.50;;;4.90;36.80;;;;;;5095008;28;20211;-48
2024/01/15 09:22:38;;;;;;;1.10;0.43;;;5.20;36.40;;;;;;5095035;28;20188;-48
2024/01/15 09:25:04;;;;;;;3.10;1.83;;;5.40;35.40;;;;;;5094997;28;20207;-46
2024/01/15 09:27:30;;;;;;;1.77;1.10;;;5.50;35.50;;;;;;5095065;28;20164;-43
2024/01/15 09:29:56;;;;;;;1.08;0.88;;;5.70;35.10;;;;;;5094797;28;20429;-51
2024/01/15 09:32:22;;;;;;;2.40;1.63;;;5.80;34.40;;;;;;5094923;28;20180;-46
2024/01/15 09:34:48;;;;;;;0.80;0.40;;;5.90;34.10;;;;;;5093667;28;20422;-42
2024/01/15 09:37:15;;;;;;;1.13;0.80;;;6.00;33.60;;;;;;5094798;28;20180;-47
2024/01/15 09:39:41;;;;;;;1.52;1.42;;;6.20;33.80;;;;;;5094486;28;20183;-51
2024/01/15 09:42:07;;;;;;;2.00;1.85;;;6.40;33.30;;;;;;5094871;28;20181;-45
2024/01/15 09:44:34;;;;;;;1.13;0.80;;;6.70;32.80;;;;;;5094621;28;20196;-47
2024/01/15 09:47:00;;;;;;;1.55;1.35;;;6.50;32.60;;;;;;5094815;28;20238;-43
2024/01/15 09:49:27;;;;;;;0.80;0.30;;;6.60;33.60;;;;;;5094629;28;20165;-46
2024/01/15 09:51:53;;;;;;;0.90;0.55;;;6.60;32.20;;;;;;5094334;28;20587;-45
2024/01/15 09:54:19;;;;;;;0.80;0.30;;;6.30;32.80;;;;;;5094766;28;20172;-41
2024/01/15 09:56:48;;;;;;;0.90;0.70;;;6.10;33.30;;;;;;5094731;28;20542;-49
2024/01/15 09:59:18;;;;;;;1.25;0.85;;;5.90;33.90;;;;;;5094634;28;20749;-47
2024/01/15 10:01:49;;;;;;;0.82;0.43;;;5.80;34.00;;;;;;5094234;28;20253;-41
2024/01/15 10:04:15;;;;;;;1.40;1.27;;;5.80;34.20;;;;;;5094204;28;20201;-43
2024/01/15 10:06:47;;;;;;;2.83;2.00;;;5.70;34.20;;;;;;5094375;28;20175;-47
2024/01/15 10:09:16;;;;;;;1.70;0.75;;;5.70;34.10;;;;;;5094310;28;20204;-44
2024/01/15 10:11:43;;;;;;;0.90;0.65;;;5.90;34.00;;;;;;5094119;28;20200;-50
2024/01/15 10:14:12;;;;;;;1.65;1.50;;;6.20;33.50;;;;;;5094309;28;20172;-42
2024/01/15 10:16:41;;;;;;;0.98;0.65;;;6.90;32.30;;;;;;5094078;28;20252;-43
2024/01/15 10:19:10;;;;;;;0.90;0.50;;;7.60;31.00;;;;;;5094066;28;20264;-50
2024/01/15 10:21:36;;;;;;;2.45;0.85;;;8.10;30.40;;;;;;5093907;28;20257;-42
2024/01/15 10:24:03;;;;;;;3.85;1.27;;;8.70;28.90;;;;;;5094228;28;20607;-44
2024/01/15 10:26:30;;;;;;;0.93;0.52;;;9.40;28.50;;;;;;5094046;28;20407;-48
2024/01/15 10:28:58;;;;;;;1.50;1.20;;;9.70;27.10;;;;;;5092933;28;20600;-43
2024/01/15 10:31:23;;;;;;;0.90;0.50;;;9.80;26.50;;;;;;5093706;28;20275;-43
2024/01/15 10:33:49;;;;;;;1.40;1.23;;;9.50;26.80;;;;;;5094088;28;20271;-50
2024/01/15 10:36:17;;;;;;;1.63;1.10;;;9.50;27.20;;;;;;5094634;28;20403;-43
2024/01/15 10:38:46;;;;;;;5.50;1.58;;;9.80;26.80;;;;;;5094765;28;20207;-44
2024/01/15 10:41:12;;;;;;;5.35;2.67;;;9.90;26.20;;;;;;5093391;28;20212;-48
2024/01/15 10:43:38;;;;;;;1.53;0.50;;;9.30;26.70;;;;;;5093376;28;20253;-45
2024/01/15 10:46:04;;;;;;;2.60;1.20;;;8.60;28.10;;;;;;5092949;28;20409;-41
2024/01/15 10:48:30;;;;;;;1.33;0.93;;;7.80;29.00;;;;;;5093587;28;20426;-51
2024/01/15 10:51:00;;;;;;;2.25;0.68;;;7.30;30.30;;;;;;5093432;28;20426;-48
2024/01/15 10:53:27;;;;;;;2.83;1.10;;;6.90;31.50;;;;;;5093433;28;20199;-44
2024/01/15 10:55:53;;;;;;;1.02;0.82;;;7.10;31.60;;;;;;5093409;28;20588;-42
2024/01/15 10:58:22;;;;;;;3.90;3.05;;;7.40;31.00;;;;;;5093183;28;20711;-46
2024/01/15 11:00:48;;;;;;;1.35;0.98;;;7.80;30.40;;;;;;5093252;28;20200;-43
2024/01/15 11:03:14;;;;;;;0.90;0.60;;;8.10;29.00;;;;;;5093092;28;20657;-49
2024/01/15 11:05:43;;;;;;;1.40;1.17;;;7.90;29.40;;;;;;5093183;28;20233;-45
2024/01/15 11:08:09;;;;;;;1.10;0.82;;;7.50;29.90;;;;;;5093170;28;20403;-42
2024/01/15 11:10:41;;;;;;;3.17;1.30;;;7.80;30.50;;;;;;5092937;28;20669;-45
2024/01/15 11:13:33;;;;;;;2.60;2.25;;;8.10;29.50;;;;;;5093007;28;20280;-49
2024/01/15 11:16:07;;;;;;;1.20;0.73;;;8.00;29.10;;;;;;5092491;28;20172;-43
2024/01/15 11:18:39;;;;;;;4.00;2.58;;;7.90;30.00;;;;;;5092980;28;20160;-43
2024/01/15 11:21:16;;;;;;;1.45;0.63;;;7.50;30.00;;;;;;5092628;28;20735;-47
2024/01/15 11:23:53;;;;;;;1.00;0.82;;;7.50;30.40;;;;;;5092807;28;20282;-45
2024/01/15 11:26:29;;;;;;;1.00;0.60;;;7.40;30.20;;;;;;5093123;28;20233;-49
2024/01/15 11:28:56;;;;;;;1.42;1.25;;;7.40;30.40;;;;;;5092971;28;20168;-41
2024/01/15 11:31:46;;;;;;;1.10;0.77;;;7.20;30.30;;;;;;5092488;28;20610;-49
2024/01/15 11:34:12;;;;;;;1.30;0.80;;;6.80;31.00;;;;;;5092607;28;20580;-46
2024/01/15 11:36:53;;;;;;;1.10;0.80;;;6.50;31.80;;;;;;5092976;28;20180;-45
2024/01/15 11:39:28;;;;;;;1.55;1.25;;;6.40;32.20;;;;;;5092607;28;20175;-43
2024/01/15 11:42:04;;;;;;;1.42;0.63;;;6.60;32.60;;;;;;5092282;28;20183;-45
2024/01/15 11:44:30;;;;;;;11.82;3.10;;;6.70;32.00;;;;;;5092627;28;20226;-48
2024/01/15 11:46:56;;;;;;;1.60;1.20;;;6.90;32.10;;;;;;5092447;28;20661;-41
2024/01/15 11:49:50;;;;;;;4.55;2.05;;;6.90;32.00;;;;;;5092691;28;20176;-49
2024/01/15 11:52:18;;;;;;;0.90;0.57;;;7.00;32.10;;;;;;5092009;28;20191;-43
2024/01/15 11:55:03;;;;;;;0.80;0.30;;;7.40;31.20;;;;;;5092282;28;20188;-45
2024/01/15 11:57:40;;;;;;;14.90;1.63;;;7.30;31.20;;;;;;5091729;28;20176;-43
2024/01/15 12:00:09;;;;;;;1.00;0.65;;;7.20;31.00;;;;;;5092188;28;20270;-45
2024/01/15 12:02:35;;;;;;;2.00;1.60;;;7.00;31.80;;;;;;5092188;28;20172;-48
2024/01/15 12:05:01;;;;;;;0.80;0.20;;;7.00;31.40;;;;;;5092035;28;20196;-44
2024/01/15 12:07:27;;;;;;;5.43;0.60;;;6.90;32.30;;;;;;5092184;28;20172;-44
2024/01/15 12:09:52;;;;;;;7.07;1.43;;;6.80;31.90;;;;;;5092142;28;20196;-51
2024/01/15 12:12:29;;;;;;;2.83;1.23;;;6.90;31.90;;;;;;5092126;28;20169;-49
2024/01/15 12:14:54;;;;;;;0.90;0.38;;;6.80;32.40;;;;;;5092367;28;20188;-43
2024/01/15 12:17:21;;;;;;;1.00;0.80;;;6.80;32.70;;;;;;5092121;28;20733;-44
2024/01/15 12:19:46;;;;;;;1.00;0.70;;;6.60;32.90;;;;;;5091729;28;20200;-49
2024/01/15 12:22:12;;;;;;;1.33;0.90;;;5.90;33.60;;;;;;5092082;28;20184;-48
2024/01/15 12:24:38;;;;;;;0.90;0.60;;;6.30;34.00;;;;;;5092021;28;20199;-43
2024/01/15 12:27:04;;;;;;;2.30;1.33;;;6.20;34.20;;;;;;5092035;28;20653;-48
2024/01/15 12:29:31;;;;;;;1.48;0.63;;;6.20;34.70;;;;;;5092068;28;20172;-46
2024/01/15 12:31:57;;;;;;;1.23;0.60;;;6.10;34.80;;;;;;5091743;28;20271;-42
2024/01/15 12:34:23;;;;;;;1.02;0.65;;;6.00;34.90;;;;;;5091823;28;20185;-46
2024/01/15 12:36:49;;;;;;;1.10;0.80;;;6.10;34.90;;;;;;5092095;28;20191;-44
2024/01/15 12:39:15;;;;;;;0.95;0.60;;;6.20;35.00;;;;;;5092107;28;20173;-42
2024/01/15 12:41:41;;;;;;;1.98;0.95;;;6.40;34.50;;;;;;5091601;28;20212;-47
2024/01/15 12:44:07;;;;;;;0.90;0.70;;;6.50;34.40;;;;;;5091865;28;20593;-50
2024/01/15 12:46:34;;;;;;;1.95;1.42;;;6.50;34.60;;;;;;5091792;28;20410;-43
2024/01/15 12:49:00;;;;;;;1.30;0.98;;;6.30;35.00;;;;;;5092047;28;20565;-43
2024/01/15 12:51:26;;;;;;;2.80;2.27;;;6.30;35.20;;;;;;5091525;28;20192;-49
2024/01/15 12:53:53;;;;;;;0.90;0.63;;;6.20;35.40;;;;;;5091925;28;20230;-44